sensor_id;sensor_type;location;lat;lon;timestamp;P1;durP1;ratioP1;P2;durP2;ratioP2
817;SDS011;391;51.052;6.954;2023-04-16T00:00:50;26.20;;;20.60;;
817;SDS011;391;51.052;6.954;2023-04-16T00:02:55;22.73;;;19.73;;
817;SDS011;391;51.052;6.954;2023-04-16T00:04:58;27.17;;;22.33;;
817;SDS011;391;51.052;6.954;2023-04-16T00:07:02;26.60;;;21.07;;
817;SDS011;391;51.052;6.954;2023-04-16T00:09:05;30.70;;;24.00;;
817;SDS011;391;51.052;6.954;2023-04-16T00:11:09;34.13;;;26.60;;
817;SDS011;391;51.052;6.954;2023-04-16T00:13:13;34.73;;;25.83;;
817;SDS011;391;51.052;6.954;2023-04-16T00:15:16;31.23;;;23.30;;
817;SDS011;391;51.052;6.954;2023-04-16T00:17:20;24.10;;;20.03;;
817;SDS011;391;51.052;6.954;2023-04-16T00:19:25;26.37;;;19.87;;
817;SDS011;391;51.052;6.954;2023-04-16T00:21:28;21.97;;;17.93;;
817;SDS011;391;51.052;6.954;2023-04-16T00:23:32;23.23;;;18.00;;
817;SDS011;391;51.052;6.954;2023-04-16T00:25:35;25.40;;;19.47;;
817;SDS011;391;51.052;6.954;2023-04-16T00:27:38;22.30;;;16.70;;
817;SDS011;391;51.052;6.954;2023-04-16T00:29:42;23.23;;;18.33;;
817;SDS011;391;51.052;6.954;2023-04-16T00:31:45;20.90;;;15.40;;
817;SDS011;391;51.052;6.954;2023-04-16T00:33:48;20.53;;;13.60;;
817;SDS011;391;51.052;6.954;2023-04-16T00:35:53;22.27;;;16.63;;
817;SDS011;391;51.052;6.954;2023-04-16T00:37:56;19.50;;;16.30;;
817;SDS011;391;51.052;6.954;2023-04-16T00:40:00;20.03;;;16.87;;
817;SDS011;391;51.052;6.954;2023-04-16T00:42:04;22.33;;;17.00;;
817;SDS011;391;51.052;6.954;2023-04-16T00:44:07;24.50;;;18.17;;
817;SDS011;391;51.052;6.954;2023-04-16T00:46:11;23.10;;;17.70;;
817;SDS011;391;51.052;6.954;2023-04-16T00:48:14;24.37;;;16.70;;
817;SDS011;391;51.052;6.954;2023-04-16T00:50:19;21.57;;;16.33;;
817;SDS011;391;51.052;6.954;2023-04-16T00:52:24;28.93;;;19.07;;
817;SDS011;391;51.052;6.954;2023-04-16T00:54:29;22.17;;;16.13;;
817;SDS011;391;51.052;6.954;2023-04-16T00:56:33;27.17;;;19.27;;
817;SDS011;391;51.052;6.954;2023-04-16T00:58:38;27.60;;;18.97;;
817;SDS011;391;51.052;6.954;2023-04-16T01:00:41;27.67;;;17.17;;
817;SDS011;391;51.052;6.954;2023-04-16T01:02:45;25.40;;;17.80;;
817;SDS011;391;51.052;6.954;2023-04-16T01:04:49;22.80;;;17.27;;
817;SDS011;391;51.052;6.954;2023-04-16T01:06:53;30.27;;;19.10;;
817;SDS011;391;51.052;6.954;2023-04-16T01:08:58;22.47;;;16.50;;
817;SDS011;391;51.052;6.954;2023-04-16T01:11:02;25.80;;;18.10;;
817;SDS011;391;51.052;6.954;2023-04-16T01:13:06;21.30;;;15.60;;
817;SDS011;391;51.052;6.954;2023-04-16T01:15:09;26.23;;;19.93;;
817;SDS011;391;51.052;6.954;2023-04-16T01:17:13;30.90;;;20.37;;
817;SDS011;391;51.052;6.954;2023-04-16T01:19:17;30.10;;;20.20;;
817;SDS011;391;51.052;6.954;2023-04-16T01:21:21;28.20;;;20.40;;
817;SDS011;391;51.052;6.954;2023-04-16T01:23:25;31.40;;;21.43;;
817;SDS011;391;51.052;6.954;2023-04-16T01:25:28;25.40;;;19.03;;
817;SDS011;391;51.052;6.954;2023-04-16T01:27:31;28.20;;;18.80;;
817;SDS011;391;51.052;6.954;2023-04-16T01:29:35;27.83;;;20.73;;
817;SDS011;391;51.052;6.954;2023-04-16T01:31:39;28.17;;;20.10;;
817;SDS011;391;51.052;6.954;2023-04-16T01:34:05;27.50;;;19.00;;
817;SDS011;391;51.052;6.954;2023-04-16T01:36:09;27.83;;;17.63;;
817;SDS011;391;51.052;6.954;2023-04-16T01:38:14;32.50;;;20.60;;
817;SDS011;391;51.052;6.954;2023-04-16T01:40:17;31.93;;;21.43;;
817;SDS011;391;51.052;6.954;2023-04-16T01:42:21;34.00;;;22.67;;
817;SDS011;391;51.052;6.954;2023-04-16T01:44:25;28.47;;;21.50;;
817;SDS011;391;51.052;6.954;2023-04-16T01:46:29;34.37;;;19.83;;
817;SDS011;391;51.052;6.954;2023-04-16T01:48:35;25.13;;;17.20;;
817;SDS011;391;51.052;6.954;2023-04-16T01:50:39;21.77;;;16.33;;
817;SDS011;391;51.052;6.954;2023-04-16T01:52:43;26.03;;;16.60;;
817;SDS011;391;51.052;6.954;2023-04-16T01:54:48;19.47;;;14.80;;
817;SDS011;391;51.052;6.954;2023-04-16T01:56:51;23.70;;;16.60;;
817;SDS011;391;51.052;6.954;2023-04-16T01:58:54;17.93;;;15.90;;
817;SDS011;391;51.052;6.954;2023-04-16T02:01:00;25.30;;;18.17;;
817;SDS011;391;51.052;6.954;2023-04-16T02:03:04;18.97;;;14.80;;
817;SDS011;391;51.052;6.954;2023-04-16T02:05:07;23.43;;;16.60;;
817;SDS011;391;51.052;6.954;2023-04-16T02:07:11;20.50;;;15.87;;
817;SDS011;391;51.052;6.954;2023-04-16T02:09:15;26.63;;;17.53;;
817;SDS011;391;51.052;6.954;2023-04-16T02:11:20;17.97;;;15.70;;
817;SDS011;391;51.052;6.954;2023-04-16T02:13:24;26.80;;;14.30;;
817;SDS011;391;51.052;6.954;2023-04-16T02:15:28;17.20;;;14.03;;
817;SDS011;391;51.052;6.954;2023-04-16T02:17:31;17.50;;;12.87;;
817;SDS011;391;51.052;6.954;2023-04-16T02:19:41;18.40;;;13.10;;
817;SDS011;391;51.052;6.954;2023-04-16T02:21:45;15.97;;;13.40;;
817;SDS011;391;51.052;6.954;2023-04-16T02:23:48;14.00;;;10.97;;
817;SDS011;391;51.052;6.954;2023-04-16T02:25:57;16.77;;;13.60;;
817;SDS011;391;51.052;6.954;2023-04-16T02:28:04;17.00;;;13.60;;
817;SDS011;391;51.052;6.954;2023-04-16T02:30:13;23.33;;;14.40;;
817;SDS011;391;51.052;6.954;2023-04-16T02:32:17;17.10;;;13.20;;
817;SDS011;391;51.052;6.954;2023-04-16T02:34:21;18.07;;;14.83;;
817;SDS011;391;51.052;6.954;2023-04-16T02:36:25;24.27;;;16.90;;
817;SDS011;391;51.052;6.954;2023-04-16T02:38:29;23.87;;;15.73;;
817;SDS011;391;51.052;6.954;2023-04-16T02:40:33;24.13;;;16.60;;
817;SDS011;391;51.052;6.954;2023-04-16T02:42:36;20.33;;;15.40;;
817;SDS011;391;51.052;6.954;2023-04-16T02:44:42;25.03;;;15.70;;
817;SDS011;391;51.052;6.954;2023-04-16T02:46:45;28.07;;;17.77;;
817;SDS011;391;51.052;6.954;2023-04-16T02:48:49;18.30;;;14.37;;
817;SDS011;391;51.052;6.954;2023-04-16T02:50:52;29.07;;;15.13;;
817;SDS011;391;51.052;6.954;2023-04-16T02:52:56;18.23;;;13.77;;
817;SDS011;391;51.052;6.954;2023-04-16T02:54:59;27.10;;;15.90;;
817;SDS011;391;51.052;6.954;2023-04-16T02:57:03;18.87;;;13.67;;
817;SDS011;391;51.052;6.954;2023-04-16T02:59:07;23.33;;;15.70;;
817;SDS011;391;51.052;6.954;2023-04-16T03:01:12;14.37;;;12.27;;
817;SDS011;391;51.052;6.954;2023-04-16T03:03:15;16.00;;;12.07;;
817;SDS011;391;51.052;6.954;2023-04-16T03:05:19;24.10;;;16.50;;
817;SDS011;391;51.052;6.954;2023-04-16T03:07:23;19.50;;;14.27;;
817;SDS011;391;51.052;6.954;2023-04-16T03:09:26;22.07;;;13.83;;
817;SDS011;391;51.052;6.954;2023-04-16T03:11:30;25.90;;;14.80;;
817;SDS011;391;51.052;6.954;2023-04-16T03:13:33;20.23;;;14.97;;
817;SDS011;391;51.052;6.954;2023-04-16T03:15:37;27.73;;;16.47;;
817;SDS011;391;51.052;6.954;2023-04-16T03:17:41;22.33;;;15.80;;
817;SDS011;391;51.052;6.954;2023-04-16T03:19:45;18.60;;;14.57;;
817;SDS011;391;51.052;6.954;2023-04-16T03:21:48;21.20;;;15.90;;
817;SDS011;391;51.052;6.954;2023-04-16T03:23:52;28.37;;;19.03;;
817;SDS011;391;51.052;6.954;2023-04-16T03:25:57;27.83;;;19.30;;
817;SDS011;391;51.052;6.954;2023-04-16T03:28:00;25.80;;;18.10;;
817;SDS011;391;51.052;6.954;2023-04-16T03:30:05;24.80;;;17.90;;
817;SDS011;391;51.052;6.954;2023-04-16T03:32:10;34.83;;;21.40;;
817;SDS011;391;51.052;6.954;2023-04-16T03:34:15;28.37;;;19.00;;
817;SDS011;391;51.052;6.954;2023-04-16T03:36:20;32.17;;;21.93;;
817;SDS011;391;51.052;6.954;2023-04-16T03:38:24;42.00;;;24.13;;
817;SDS011;391;51.052;6.954;2023-04-16T03:40:30;35.83;;;24.73;;
817;SDS011;391;51.052;6.954;2023-04-16T03:42:34;31.70;;;22.67;;
817;SDS011;391;51.052;6.954;2023-04-16T03:44:39;31.60;;;21.83;;
817;SDS011;391;51.052;6.954;2023-04-16T03:46:43;29.83;;;21.40;;
817;SDS011;391;51.052;6.954;2023-04-16T03:48:47;36.77;;;24.57;;
817;SDS011;391;51.052;6.954;2023-04-16T03:50:52;37.33;;;23.00;;
817;SDS011;391;51.052;6.954;2023-04-16T03:52:56;39.40;;;26.10;;
817;SDS011;391;51.052;6.954;2023-04-16T03:55:01;39.50;;;26.63;;
817;SDS011;391;51.052;6.954;2023-04-16T03:57:05;44.87;;;28.53;;
817;SDS011;391;51.052;6.954;2023-04-16T03:59:09;42.07;;;27.57;;
817;SDS011;391;51.052;6.954;2023-04-16T04:01:12;43.17;;;28.57;;
817;SDS011;391;51.052;6.954;2023-04-16T04:03:16;46.83;;;29.60;;
817;SDS011;391;51.052;6.954;2023-04-16T04:05:22;47.20;;;31.50;;
817;SDS011;391;51.052;6.954;2023-04-16T04:07:28;44.67;;;31.63;;
817;SDS011;391;51.052;6.954;2023-04-16T04:09:31;41.10;;;26.50;;
817;SDS011;391;51.052;6.954;2023-04-16T04:11:37;48.43;;;30.40;;
817;SDS011;391;51.052;6.954;2023-04-16T04:13:40;48.93;;;32.03;;
817;SDS011;391;51.052;6.954;2023-04-16T04:15:48;47.60;;;30.97;;
817;SDS011;391;51.052;6.954;2023-04-16T04:17:58;46.00;;;30.77;;
817;SDS011;391;51.052;6.954;2023-04-16T04:20:07;42.77;;;27.70;;
817;SDS011;391;51.052;6.954;2023-04-16T04:22:16;39.30;;;26.67;;
817;SDS011;391;51.052;6.954;2023-04-16T04:24:25;36.27;;;25.53;;
817;SDS011;391;51.052;6.954;2023-04-16T04:26:30;46.80;;;31.17;;
817;SDS011;391;51.052;6.954;2023-04-16T04:28:33;47.70;;;29.80;;
817;SDS011;391;51.052;6.954;2023-04-16T04:30:38;49.37;;;31.73;;
817;SDS011;391;51.052;6.954;2023-04-16T04:32:42;49.20;;;30.10;;
817;SDS011;391;51.052;6.954;2023-04-16T04:34:45;49.23;;;28.90;;
817;SDS011;391;51.052;6.954;2023-04-16T04:36:49;44.77;;;27.60;;
817;SDS011;391;51.052;6.954;2023-04-16T04:38:53;45.77;;;31.50;;
817;SDS011;391;51.052;6.954;2023-04-16T04:40:59;42.57;;;28.77;;
817;SDS011;391;51.052;6.954;2023-04-16T04:43:06;49.93;;;30.90;;
817;SDS011;391;51.052;6.954;2023-04-16T04:45:10;43.97;;;30.23;;
817;SDS011;391;51.052;6.954;2023-04-16T04:47:15;46.77;;;28.80;;
817;SDS011;391;51.052;6.954;2023-04-16T04:49:19;49.53;;;30.80;;
817;SDS011;391;51.052;6.954;2023-04-16T04:51:22;45.83;;;28.10;;
817;SDS011;391;51.052;6.954;2023-04-16T04:53:25;39.87;;;26.50;;
817;SDS011;391;51.052;6.954;2023-04-16T04:55:29;46.00;;;28.90;;
817;SDS011;391;51.052;6.954;2023-04-16T04:57:34;48.90;;;31.57;;
817;SDS011;391;51.052;6.954;2023-04-16T04:59:38;45.60;;;32.50;;
817;SDS011;391;51.052;6.954;2023-04-16T05:01:42;44.23;;;28.53;;
817;SDS011;391;51.052;6.954;2023-04-16T05:03:45;45.37;;;29.90;;
817;SDS011;391;51.052;6.954;2023-04-16T05:05:48;52.37;;;29.90;;
817;SDS011;391;51.052;6.954;2023-04-16T05:07:52;45.47;;;27.13;;
817;SDS011;391;51.052;6.954;2023-04-16T05:09:56;42.43;;;29.30;;
817;SDS011;391;51.052;6.954;2023-04-16T05:11:59;48.40;;;27.30;;
817;SDS011;391;51.052;6.954;2023-04-16T05:14:04;49.20;;;30.33;;
817;SDS011;391;51.052;6.954;2023-04-16T05:16:08;40.47;;;27.70;;
817;SDS011;391;51.052;6.954;2023-04-16T05:18:11;45.13;;;30.83;;
817;SDS011;391;51.052;6.954;2023-04-16T05:20:15;46.67;;;27.17;;
817;SDS011;391;51.052;6.954;2023-04-16T05:22:18;42.90;;;31.33;;
817;SDS011;391;51.052;6.954;2023-04-16T05:24:21;48.60;;;30.87;;
817;SDS011;391;51.052;6.954;2023-04-16T05:26:25;48.33;;;30.73;;
817;SDS011;391;51.052;6.954;2023-04-16T05:28:28;47.40;;;29.17;;
817;SDS011;391;51.052;6.954;2023-04-16T05:30:33;44.13;;;30.00;;
817;SDS011;391;51.052;6.954;2023-04-16T05:32:37;51.80;;;31.40;;
817;SDS011;391;51.052;6.954;2023-04-16T05:34:41;48.10;;;29.70;;
817;SDS011;391;51.052;6.954;2023-04-16T05:36:44;43.07;;;29.23;;
817;SDS011;391;51.052;6.954;2023-04-16T05:38:48;46.43;;;29.33;;
817;SDS011;391;51.052;6.954;2023-04-16T05:40:51;40.10;;;26.80;;
817;SDS011;391;51.052;6.954;2023-04-16T05:42:54;40.60;;;26.80;;
817;SDS011;391;51.052;6.954;2023-04-16T05:44:58;46.03;;;29.20;;
817;SDS011;391;51.052;6.954;2023-04-16T05:47:02;46.63;;;31.80;;
817;SDS011;391;51.052;6.954;2023-04-16T05:49:09;55.63;;;30.40;;
817;SDS011;391;51.052;6.954;2023-04-16T05:51:13;44.73;;;30.10;;
817;SDS011;391;51.052;6.954;2023-04-16T05:53:16;45.83;;;30.47;;
817;SDS011;391;51.052;6.954;2023-04-16T05:55:20;50.90;;;32.30;;
817;SDS011;391;51.052;6.954;2023-04-16T05:57:24;50.57;;;28.80;;
817;SDS011;391;51.052;6.954;2023-04-16T05:59:27;40.43;;;29.70;;
817;SDS011;391;51.052;6.954;2023-04-16T06:01:31;54.00;;;33.07;;
817;SDS011;391;51.052;6.954;2023-04-16T06:03:36;49.13;;;30.90;;
817;SDS011;391;51.052;6.954;2023-04-16T06:05:40;46.97;;;29.20;;
817;SDS011;391;51.052;6.954;2023-04-16T06:07:43;45.77;;;30.27;;
817;SDS011;391;51.052;6.954;2023-04-16T06:09:47;46.40;;;30.23;;
817;SDS011;391;51.052;6.954;2023-04-16T06:11:50;50.13;;;32.27;;
817;SDS011;391;51.052;6.954;2023-04-16T06:13:53;44.30;;;31.80;;
817;SDS011;391;51.052;6.954;2023-04-16T06:15:57;43.10;;;28.03;;
817;SDS011;391;51.052;6.954;2023-04-16T06:18:00;48.30;;;30.90;;
817;SDS011;391;51.052;6.954;2023-04-16T06:20:06;41.93;;;26.90;;
817;SDS011;391;51.052;6.954;2023-04-16T06:22:10;35.60;;;25.07;;
817;SDS011;391;51.052;6.954;2023-04-16T06:24:13;50.93;;;33.40;;
817;SDS011;391;51.052;6.954;2023-04-16T06:26:17;42.80;;;30.83;;
817;SDS011;391;51.052;6.954;2023-04-16T06:28:20;46.67;;;29.47;;
817;SDS011;391;51.052;6.954;2023-04-16T06:30:24;42.87;;;27.20;;
817;SDS011;391;51.052;6.954;2023-04-16T06:32:27;45.53;;;27.47;;
817;SDS011;391;51.052;6.954;2023-04-16T06:34:31;39.03;;;26.77;;
817;SDS011;391;51.052;6.954;2023-04-16T06:36:36;43.63;;;25.60;;
817;SDS011;391;51.052;6.954;2023-04-16T06:38:39;37.70;;;25.67;;
817;SDS011;391;51.052;6.954;2023-04-16T06:40:42;33.37;;;22.90;;
817;SDS011;391;51.052;6.954;2023-04-16T06:42:46;36.00;;;23.70;;
817;SDS011;391;51.052;6.954;2023-04-16T06:44:49;36.70;;;23.80;;
817;SDS011;391;51.052;6.954;2023-04-16T06:46:53;28.87;;;22.27;;
817;SDS011;391;51.052;6.954;2023-04-16T06:48:56;38.93;;;24.80;;
817;SDS011;391;51.052;6.954;2023-04-16T06:50:59;35.20;;;24.90;;
817;SDS011;391;51.052;6.954;2023-04-16T06:53:04;36.80;;;24.53;;
817;SDS011;391;51.052;6.954;2023-04-16T06:55:08;29.40;;;22.50;;
817;SDS011;391;51.052;6.954;2023-04-16T06:57:12;28.90;;;20.10;;
817;SDS011;391;51.052;6.954;2023-04-16T06:59:15;30.80;;;20.80;;
817;SDS011;391;51.052;6.954;2023-04-16T07:01:18;33.70;;;22.10;;
817;SDS011;391;51.052;6.954;2023-04-16T07:03:22;32.13;;;21.07;;
817;SDS011;391;51.052;6.954;2023-04-16T07:05:25;31.57;;;23.00;;
817;SDS011;391;51.052;6.954;2023-04-16T07:07:29;29.17;;;19.60;;
817;SDS011;391;51.052;6.954;2023-04-16T07:09:34;28.80;;;22.10;;
817;SDS011;391;51.052;6.954;2023-04-16T07:11:38;30.47;;;21.70;;
817;SDS011;391;51.052;6.954;2023-04-16T07:13:41;27.93;;;20.33;;
817;SDS011;391;51.052;6.954;2023-04-16T07:15:45;28.43;;;18.97;;
817;SDS011;391;51.052;6.954;2023-04-16T07:17:48;32.17;;;20.10;;
817;SDS011;391;51.052;6.954;2023-04-16T07:19:52;28.20;;;19.00;;
817;SDS011;391;51.052;6.954;2023-04-16T07:21:55;30.27;;;18.37;;
817;SDS011;391;51.052;6.954;2023-04-16T07:23:58;30.33;;;19.77;;
817;SDS011;391;51.052;6.954;2023-04-16T07:26:03;24.50;;;17.20;;
817;SDS011;391;51.052;6.954;2023-04-16T07:28:06;23.23;;;18.23;;
817;SDS011;391;51.052;6.954;2023-04-16T07:30:10;29.17;;;19.80;;
817;SDS011;391;51.052;6.954;2023-04-16T07:32:13;30.23;;;19.77;;
817;SDS011;391;51.052;6.954;2023-04-16T07:34:17;26.90;;;19.17;;
817;SDS011;391;51.052;6.954;2023-04-16T07:36:20;25.97;;;20.00;;
817;SDS011;391;51.052;6.954;2023-04-16T07:38:24;26.47;;;18.80;;
817;SDS011;391;51.052;6.954;2023-04-16T07:40:27;28.07;;;20.10;;
817;SDS011;391;51.052;6.954;2023-04-16T07:42:32;30.60;;;19.93;;
817;SDS011;391;51.052;6.954;2023-04-16T07:44:35;28.17;;;20.27;;
817;SDS011;391;51.052;6.954;2023-04-16T07:46:40;29.17;;;18.67;;
817;SDS011;391;51.052;6.954;2023-04-16T07:48:48;24.17;;;18.00;;
817;SDS011;391;51.052;6.954;2023-04-16T07:50:52;29.37;;;18.80;;
817;SDS011;391;51.052;6.954;2023-04-16T07:52:55;29.30;;;22.03;;
817;SDS011;391;51.052;6.954;2023-04-16T07:54:59;29.97;;;21.73;;
817;SDS011;391;51.052;6.954;2023-04-16T07:57:02;22.43;;;18.17;;
817;SDS011;391;51.052;6.954;2023-04-16T07:59:07;27.80;;;19.10;;
817;SDS011;391;51.052;6.954;2023-04-16T08:01:24;26.93;;;20.57;;
817;SDS011;391;51.052;6.954;2023-04-16T08:03:28;22.47;;;17.80;;
817;SDS011;391;51.052;6.954;2023-04-16T08:05:32;25.97;;;20.50;;
817;SDS011;391;51.052;6.954;2023-04-16T08:07:35;28.30;;;17.70;;
817;SDS011;391;51.052;6.954;2023-04-16T08:09:45;28.17;;;18.50;;
817;SDS011;391;51.052;6.954;2023-04-16T08:11:50;24.67;;;19.67;;
817;SDS011;391;51.052;6.954;2023-04-16T08:13:53;21.80;;;18.33;;
817;SDS011;391;51.052;6.954;2023-04-16T08:15:58;24.87;;;17.80;;
817;SDS011;391;51.052;6.954;2023-04-16T08:18:02;23.07;;;17.90;;
817;SDS011;391;51.052;6.954;2023-04-16T08:20:08;24.77;;;20.23;;
817;SDS011;391;51.052;6.954;2023-04-16T08:22:16;24.77;;;18.10;;
817;SDS011;391;51.052;6.954;2023-04-16T08:24:20;29.03;;;18.50;;
817;SDS011;391;51.052;6.954;2023-04-16T08:26:23;19.73;;;16.67;;
817;SDS011;391;51.052;6.954;2023-04-16T08:28:27;21.97;;;18.80;;
817;SDS011;391;51.052;6.954;2023-04-16T08:30:30;22.53;;;18.00;;
817;SDS011;391;51.052;6.954;2023-04-16T08:32:35;26.13;;;20.97;;
817;SDS011;391;51.052;6.954;2023-04-16T08:34:38;23.90;;;17.53;;
817;SDS011;391;51.052;6.954;2023-04-16T08:36:42;26.20;;;18.10;;
817;SDS011;391;51.052;6.954;2023-04-16T08:38:45;23.50;;;18.30;;
817;SDS011;391;51.052;6.954;2023-04-16T08:40:48;25.17;;;16.50;;
817;SDS011;391;51.052;6.954;2023-04-16T08:42:52;23.93;;;18.00;;
817;SDS011;391;51.052;6.954;2023-04-16T08:45:00;23.67;;;18.87;;
817;SDS011;391;51.052;6.954;2023-04-16T08:47:09;20.63;;;16.77;;
817;SDS011;391;51.052;6.954;2023-04-16T08:49:16;23.43;;;17.37;;
817;SDS011;391;51.052;6.954;2023-04-16T08:51:20;23.47;;;16.97;;
817;SDS011;391;51.052;6.954;2023-04-16T08:53:26;19.43;;;17.30;;
817;SDS011;391;51.052;6.954;2023-04-16T08:55:37;24.80;;;19.40;;
817;SDS011;391;51.052;6.954;2023-04-16T08:57:43;23.13;;;18.07;;
817;SDS011;391;51.052;6.954;2023-04-16T08:59:50;23.00;;;19.00;;
817;SDS011;391;51.052;6.954;2023-04-16T09:01:56;25.93;;;17.93;;
817;SDS011;391;51.052;6.954;2023-04-16T09:04:01;21.20;;;15.97;;
817;SDS011;391;51.052;6.954;2023-04-16T09:06:06;22.93;;;18.50;;
817;SDS011;391;51.052;6.954;2023-04-16T09:08:11;19.37;;;17.27;;
817;SDS011;391;51.052;6.954;2023-04-16T09:10:15;25.37;;;19.27;;
817;SDS011;391;51.052;6.954;2023-04-16T09:12:20;20.10;;;16.63;;
817;SDS011;391;51.052;6.954;2023-04-16T09:14:25;21.50;;;19.10;;
817;SDS011;391;51.052;6.954;2023-04-16T09:16:30;22.90;;;19.07;;
817;SDS011;391;51.052;6.954;2023-04-16T09:18:36;21.33;;;18.53;;
817;SDS011;391;51.052;6.954;2023-04-16T09:20:39;20.73;;;17.20;;
817;SDS011;391;51.052;6.954;2023-04-16T09:22:44;21.43;;;16.33;;
817;SDS011;391;51.052;6.954;2023-04-16T09:24:47;23.20;;;18.70;;
817;SDS011;391;51.052;6.954;2023-04-16T09:26:51;28.77;;;20.30;;
817;SDS011;391;51.052;6.954;2023-04-16T09:28:56;24.13;;;19.23;;
817;SDS011;391;51.052;6.954;2023-04-16T09:31:06;22.27;;;18.47;;
817;SDS011;391;51.052;6.954;2023-04-16T09:33:11;22.10;;;18.40;;
817;SDS011;391;51.052;6.954;2023-04-16T09:35:17;20.90;;;18.40;;
817;SDS011;391;51.052;6.954;2023-04-16T09:37:22;18.50;;;16.67;;
817;SDS011;391;51.052;6.954;2023-04-16T09:39:27;22.33;;;16.97;;
817;SDS011;391;51.052;6.954;2023-04-16T09:41:31;22.33;;;15.87;;
817;SDS011;391;51.052;6.954;2023-04-16T09:43:38;22.93;;;19.23;;
817;SDS011;391;51.052;6.954;2023-04-16T09:45:48;21.13;;;18.90;;
817;SDS011;391;51.052;6.954;2023-04-16T09:47:52;20.10;;;16.10;;
817;SDS011;391;51.052;6.954;2023-04-16T09:50:05;23.90;;;18.43;;
817;SDS011;391;51.052;6.954;2023-04-16T09:52:13;22.07;;;18.43;;
817;SDS011;391;51.052;6.954;2023-04-16T09:54:18;20.97;;;18.67;;
817;SDS011;391;51.052;6.954;2023-04-16T09:56:23;23.93;;;18.53;;
817;SDS011;391;51.052;6.954;2023-04-16T09:58:27;28.57;;;25.30;;
817;SDS011;391;51.052;6.954;2023-04-16T10:00:32;21.57;;;19.33;;
817;SDS011;391;51.052;6.954;2023-04-16T10:02:37;22.37;;;17.77;;
817;SDS011;391;51.052;6.954;2023-04-16T10:04:44;17.93;;;15.13;;
817;SDS011;391;51.052;6.954;2023-04-16T10:07:01;21.40;;;17.50;;
817;SDS011;391;51.052;6.954;2023-04-16T10:09:06;20.13;;;17.00;;
817;SDS011;391;51.052;6.954;2023-04-16T10:11:12;20.90;;;17.97;;
817;SDS011;391;51.052;6.954;2023-04-16T10:13:16;23.90;;;17.90;;
817;SDS011;391;51.052;6.954;2023-04-16T10:15:20;24.07;;;17.57;;
817;SDS011;391;51.052;6.954;2023-04-16T10:17:24;22.27;;;17.20;;
817;SDS011;391;51.052;6.954;2023-04-16T10:19:30;19.73;;;16.37;;
817;SDS011;391;51.052;6.954;2023-04-16T10:21:34;19.93;;;16.60;;
817;SDS011;391;51.052;6.954;2023-04-16T10:23:38;19.20;;;16.43;;
817;SDS011;391;51.052;6.954;2023-04-16T10:25:42;19.77;;;16.70;;
817;SDS011;391;51.052;6.954;2023-04-16T10:27:46;20.90;;;17.00;;
817;SDS011;391;51.052;6.954;2023-04-16T10:29:51;22.57;;;20.07;;
817;SDS011;391;51.052;6.954;2023-04-16T10:31:55;24.93;;;17.70;;
817;SDS011;391;51.052;6.954;2023-04-16T10:33:59;20.53;;;18.00;;
817;SDS011;391;51.052;6.954;2023-04-16T10:36:07;20.73;;;18.57;;
817;SDS011;391;51.052;6.954;2023-04-16T10:38:21;21.80;;;19.50;;
817;SDS011;391;51.052;6.954;2023-04-16T10:40:26;20.10;;;17.97;;
817;SDS011;391;51.052;6.954;2023-04-16T10:42:30;23.50;;;19.33;;
817;SDS011;391;51.052;6.954;2023-04-16T10:44:34;19.80;;;17.70;;
817;SDS011;391;51.052;6.954;2023-04-16T10:46:40;19.63;;;16.57;;
817;SDS011;391;51.052;6.954;2023-04-16T10:48:44;18.07;;;16.17;;
817;SDS011;391;51.052;6.954;2023-04-16T10:50:54;18.90;;;14.90;;
817;SDS011;391;51.052;6.954;2023-04-16T10:53:18;21.90;;;17.03;;
817;SDS011;391;51.052;6.954;2023-04-16T10:55:24;21.03;;;17.23;;
817;SDS011;391;51.052;6.954;2023-04-16T10:57:29;24.53;;;18.00;;
817;SDS011;391;51.052;6.954;2023-04-16T10:59:33;20.27;;;18.00;;
817;SDS011;391;51.052;6.954;2023-04-16T11:01:41;19.60;;;17.63;;
817;SDS011;391;51.052;6.954;2023-04-16T11:03:46;18.40;;;15.30;;
817;SDS011;391;51.052;6.954;2023-04-16T11:05:50;17.67;;;16.00;;
817;SDS011;391;51.052;6.954;2023-04-16T11:07:53;19.63;;;17.63;;
817;SDS011;391;51.052;6.954;2023-04-16T11:09:57;20.93;;;16.67;;
817;SDS011;391;51.052;6.954;2023-04-16T11:12:03;20.27;;;17.90;;
817;SDS011;391;51.052;6.954;2023-04-16T11:14:13;17.00;;;15.40;;
817;SDS011;391;51.052;6.954;2023-04-16T11:16:17;20.50;;;17.63;;
817;SDS011;391;51.052;6.954;2023-04-16T11:18:22;19.43;;;17.50;;
817;SDS011;391;51.052;6.954;2023-04-16T11:20:26;19.80;;;17.70;;
817;SDS011;391;51.052;6.954;2023-04-16T11:22:30;17.90;;;16.00;;
817;SDS011;391;51.052;6.954;2023-04-16T11:24:37;19.50;;;17.50;;
817;SDS011;391;51.052;6.954;2023-04-16T11:26:41;19.17;;;17.27;;
817;SDS011;391;51.052;6.954;2023-04-16T11:28:45;19.60;;;17.63;;
817;SDS011;391;51.052;6.954;2023-04-16T11:30:48;19.33;;;17.23;;
817;SDS011;391;51.052;6.954;2023-04-16T11:32:52;17.20;;;15.43;;
817;SDS011;391;51.052;6.954;2023-04-16T11:34:57;17.17;;;15.47;;
817;SDS011;391;51.052;6.954;2023-04-16T11:37:00;20.20;;;18.20;;
817;SDS011;391;51.052;6.954;2023-04-16T11:39:04;18.10;;;16.47;;
817;SDS011;391;51.052;6.954;2023-04-16T11:41:07;19.20;;;17.30;;
817;SDS011;391;51.052;6.954;2023-04-16T11:43:12;18.80;;;16.00;;
817;SDS011;391;51.052;6.954;2023-04-16T11:45:16;16.90;;;15.10;;
817;SDS011;391;51.052;6.954;2023-04-16T11:47:21;18.53;;;16.57;;
817;SDS011;391;51.052;6.954;2023-04-16T11:49:28;18.30;;;16.43;;
817;SDS011;391;51.052;6.954;2023-04-16T11:51:33;16.13;;;14.63;;
817;SDS011;391;51.052;6.954;2023-04-16T11:53:44;16.33;;;14.83;;
817;SDS011;391;51.052;6.954;2023-04-16T11:55:48;20.97;;;18.70;;
817;SDS011;391;51.052;6.954;2023-04-16T11:57:52;21.53;;;19.23;;
817;SDS011;391;51.052;6.954;2023-04-16T11:59:56;17.40;;;15.70;;
817;SDS011;391;51.052;6.954;2023-04-16T12:02:13;16.13;;;14.60;;
817;SDS011;391;51.052;6.954;2023-04-16T12:04:17;19.57;;;16.30;;
817;SDS011;391;51.052;6.954;2023-04-16T12:06:22;21.10;;;18.87;;
817;SDS011;391;51.052;6.954;2023-04-16T12:08:28;19.30;;;17.30;;
817;SDS011;391;51.052;6.954;2023-04-16T12:10:33;16.10;;;14.43;;
817;SDS011;391;51.052;6.954;2023-04-16T12:12:37;18.30;;;16.50;;
817;SDS011;391;51.052;6.954;2023-04-16T12:14:48;17.27;;;15.67;;
817;SDS011;391;51.052;6.954;2023-04-16T12:16:52;15.80;;;14.40;;
817;SDS011;391;51.052;6.954;2023-04-16T12:18:58;14.83;;;13.30;;
817;SDS011;391;51.052;6.954;2023-04-16T12:21:04;16.50;;;14.90;;
817;SDS011;391;51.052;6.954;2023-04-16T12:23:20;17.37;;;15.67;;
817;SDS011;391;51.052;6.954;2023-04-16T12:25:26;15.73;;;14.23;;
817;SDS011;391;51.052;6.954;2023-04-16T12:27:39;14.10;;;12.67;;
817;SDS011;391;51.052;6.954;2023-04-16T12:29:44;13.47;;;12.07;;
817;SDS011;391;51.052;6.954;2023-04-16T12:32:04;15.73;;;14.13;;
817;SDS011;391;51.052;6.954;2023-04-16T12:34:23;15.00;;;13.60;;
817;SDS011;391;51.052;6.954;2023-04-16T12:36:47;16.90;;;15.33;;
817;SDS011;391;51.052;6.954;2023-04-16T12:38:53;17.17;;;15.40;;
817;SDS011;391;51.052;6.954;2023-04-16T12:40:57;18.07;;;16.27;;
817;SDS011;391;51.052;6.954;2023-04-16T12:43:03;17.80;;;16.00;;
817;SDS011;391;51.052;6.954;2023-04-16T12:45:07;17.40;;;15.67;;
817;SDS011;391;51.052;6.954;2023-04-16T12:47:10;16.17;;;14.53;;
817;SDS011;391;51.052;6.954;2023-04-16T12:49:14;14.70;;;13.30;;
817;SDS011;391;51.052;6.954;2023-04-16T12:51:19;15.33;;;13.93;;
817;SDS011;391;51.052;6.954;2023-04-16T12:53:23;16.00;;;14.50;;
817;SDS011;391;51.052;6.954;2023-04-16T12:55:27;14.13;;;12.60;;